createdAt,value
2018-11-22T12:17:47.995Z,100670.50
2018-11-22T12:20:16.834Z,100674.16
2018-11-22T12:22:46.327Z,100665.67
2018-11-22T12:25:15.843Z,100674.20
2018-11-22T12:27:44.822Z,100666.48
2018-11-22T12:30:15.610Z,100668.68
2018-11-22T12:32:46.788Z,100667.37
2018-11-22T12:35:20.260Z,100668.06
2018-11-22T12:38:52.516Z,100668.53
2018-11-22T12:41:20.862Z,100667.64
2018-11-22T12:43:49.089Z,100669.38
2018-11-22T12:46:17.235Z,100675.05
2018-11-22T12:48:45.400Z,100666.91
2018-11-22T12:51:13.554Z,100669.80
2018-11-22T12:53:41.695Z,100659.47
2018-11-22T12:56:09.859Z,100656.31
2018-11-22T12:58:38.008Z,100662.02
2018-11-22T13:01:06.272Z,100662.55
2018-11-22T13:03:34.419Z,100657.04
2018-11-22T13:06:02.582Z,100649.05
2018-11-22T13:08:30.731Z,100658.08
2018-11-22T13:10:58.892Z,100659.97
2018-11-22T13:13:27.127Z,100662.67
2018-11-22T13:15:55.279Z,100663.90
2018-11-22T13:18:23.526Z,100665.72
2018-11-22T13:20:51.690Z,100657.50
2018-11-22T13:23:19.837Z,100661.00
2018-11-22T13:25:47.987Z,100661.42
2018-11-22T13:28:16.130Z,100660.89
2018-11-22T13:30:44.293Z,100661.73
2018-11-22T13:33:12.449Z,100660.50
2018-11-22T13:35:40.611Z,100660.63
2018-11-22T13:38:08.760Z,100662.05
2018-11-22T13:40:36.919Z,100653.03
2018-11-22T13:43:05.456Z,100663.75
2018-11-22T13:45:33.619Z,100664.55
2018-11-22T13:48:01.787Z,100661.31
2018-11-22T13:50:32.117Z,100663.51
2018-11-22T13:53:01.731Z,100657.30
2018-11-22T13:55:29.983Z,100664.55
2018-11-22T13:57:58.139Z,100664.75
2018-11-22T14:00:29.620Z,100660.47
2018-11-22T14:03:00.067Z,100655.23
2018-11-22T14:05:28.207Z,100659.97
2018-11-22T14:07:56.367Z,100658.38
2018-11-22T14:10:24.529Z,100659.42
2018-11-22T14:12:52.683Z,100661.42
2018-11-22T14:15:22.154Z,100658.41
2018-11-22T14:17:51.685Z,100661.75
2018-11-22T14:20:21.371Z,100663.13
2018-11-22T14:22:49.656Z,100664.06
2018-11-22T14:25:18.126Z,100666.79
2018-11-22T14:27:47.339Z,100664.70
2018-11-22T14:30:16.835Z,100669.70
2018-11-22T14:32:45.648Z,100663.11
2018-11-22T14:35:15.033Z,100669.03
2018-11-22T14:37:43.715Z,100667.42
2018-11-22T14:40:14.148Z,100663.52
2018-11-22T14:42:42.519Z,100654.66
2018-11-22T14:45:11.939Z,100661.99
2018-11-22T14:47:40.407Z,100661.63
2018-11-22T14:50:10.660Z,100668.02
2018-11-22T14:52:39.111Z,100670.80
2018-11-22T14:55:08.019Z,100668.44
2018-11-22T14:57:36.363Z,100666.73
2018-11-22T15:00:06.340Z,100665.55
2018-11-22T15:02:34.565Z,100663.91
2018-11-22T15:05:02.747Z,100664.86
2018-11-22T15:07:30.899Z,100665.80
2018-11-22T15:09:59.093Z,100661.47
2018-11-22T15:12:27.243Z,100654.86
2018-11-22T15:14:55.443Z,100650.92
2018-11-22T15:17:23.591Z,100656.86
2018-11-22T15:19:51.760Z,100656.39
2018-11-22T15:22:19.911Z,100652.11
2018-11-22T15:24:48.147Z,100650.41
2018-11-22T15:27:16.287Z,100656.85
2018-11-22T15:29:44.449Z,100659.23
2018-11-22T15:32:12.776Z,100656.27
2018-11-22T15:34:40.936Z,100658.15
2018-11-22T15:37:09.112Z,100659.90
2018-11-22T15:39:37.501Z,100660.13
2018-11-22T15:42:05.769Z,100655.80
2018-11-22T15:44:34.063Z,100654.12
2018-11-22T15:47:02.216Z,100662.24
2018-11-22T15:49:30.392Z,100655.14
2018-11-22T15:51:58.663Z,100660.15
2018-11-22T15:54:26.879Z,100657.95
2018-11-22T15:56:55.147Z,100666.95
2018-11-22T15:59:23.460Z,100670.98
2018-11-22T16:01:51.617Z,100674.72
2018-11-22T16:04:19.762Z,100674.91
2018-11-22T16:06:48.060Z,100675.49
2018-11-22T16:09:16.299Z,100671.14
2018-11-22T16:11:44.583Z,100672.09
2018-11-22T16:14:13.092Z,100675.78
2018-11-22T16:16:41.352Z,100678.51
2018-11-22T16:19:09.523Z,100678.59
2018-11-22T16:21:37.725Z,100677.72
2018-11-22T16:24:06.011Z,100680.84
2018-11-22T16:26:34.258Z,100686.74
2018-11-22T16:29:02.415Z,100696.31
2018-11-22T16:31:30.604Z,100693.27
2018-11-22T16:33:58.780Z,100694.20
2018-11-22T16:36:26.911Z,100698.70
2018-11-22T16:38:55.055Z,100701.39
2018-11-22T16:41:23.223Z,100696.98
2018-11-22T16:43:51.373Z,100698.78
2018-11-22T16:46:19.552Z,100698.81
2018-11-22T16:48:47.715Z,100696.22
2018-11-22T16:51:15.867Z,100702.95
2018-11-22T16:53:44.128Z,100706.11
2018-11-22T16:56:12.290Z,100705.22
2018-11-22T16:58:40.519Z,100704.84
2018-11-22T17:01:08.715Z,100698.17
2018-11-22T17:03:36.872Z,100699.09
2018-11-22T17:06:05.608Z,100704.09
2018-11-22T17:08:33.847Z,100700.97
2018-11-22T17:11:02.369Z,100702.34
2018-11-22T17:13:30.243Z,100702.41
2018-11-22T17:15:58.453Z,100714.12
2018-11-22T17:18:26.607Z,100710.61
2018-11-22T17:20:54.806Z,100710.20
2018-11-22T17:23:23.017Z,100708.41
2018-11-22T17:25:51.271Z,100711.17
2018-11-22T17:28:19.451Z,100711.19
2018-11-22T17:30:47.614Z,100718.83
2018-11-22T17:33:15.785Z,100725.55
2018-11-22T17:35:44.836Z,100719.81
2018-11-22T17:38:13.728Z,100720.28
2018-11-22T17:40:44.472Z,100714.05
2018-11-22T17:43:13.314Z,100713.20
2018-11-22T17:45:43.127Z,100706.97
2018-11-22T17:48:11.547Z,100707.91
2018-11-22T17:50:41.219Z,100715.03
2018-11-22T17:53:10.072Z,100586.46
2018-11-22T17:55:38.300Z,100706.19
2018-11-22T17:58:06.691Z,100706.23
2018-11-22T18:00:37.295Z,100706.69
2018-11-22T18:03:06.368Z,100714.81
2018-11-22T18:05:34.765Z,100713.94
2018-11-22T18:08:02.903Z,100716.20
2018-11-22T18:10:33.317Z,100714.03
2018-11-22T18:13:01.744Z,100720.73
2018-11-22T18:15:31.423Z,100718.52
2018-11-22T18:17:59.621Z,100712.16
2018-11-22T18:20:29.253Z,100718.53
2018-11-22T18:22:58.130Z,100723.11
2018-11-22T18:25:27.855Z,100730.77
2018-11-22T18:27:56.002Z,100720.05
2018-11-22T18:30:25.839Z,100720.04
2018-11-22T18:32:55.475Z,100730.33
2018-11-22T18:35:23.626Z,100731.67
2018-11-22T18:37:51.774Z,100738.83
2018-11-22T18:40:21.204Z,100738.71
2018-11-22T18:42:50.382Z,100741.88
2018-11-22T18:45:23.879Z,100739.81
2018-11-22T18:47:52.058Z,100743.88
2018-11-22T18:50:21.584Z,100749.25
2018-11-22T18:52:49.851Z,100724.40
2018-11-22T18:55:18.003Z,100747.02
2018-11-22T18:57:46.452Z,100747.47
2018-11-22T19:00:20.927Z,100746.62
2018-11-22T19:02:49.223Z,100752.43
2018-11-22T19:05:18.027Z,100752.91
2018-11-22T19:07:47.296Z,100755.14
2018-11-22T19:10:18.406Z,100749.80
2018-11-22T19:12:47.535Z,100754.27
2018-11-22T19:15:17.071Z,100756.99
2018-11-22T19:17:45.628Z,100755.22
2018-11-22T19:20:16.994Z,100755.22
2018-11-22T19:22:45.966Z,100756.11
2018-11-22T19:25:14.193Z,100755.26
2018-11-22T19:27:42.844Z,100755.30
2018-11-22T19:30:14.480Z,100764.69
2018-11-22T19:32:43.391Z,100759.80
2018-11-22T19:35:12.579Z,100760.30
2018-11-22T19:37:40.971Z,100769.23
2018-11-22T19:40:12.306Z,100762.56
2018-11-22T19:42:40.699Z,100767.53
2018-11-22T19:45:10.638Z,100760.88
2018-11-22T19:47:38.811Z,100766.66
2018-11-22T19:50:09.511Z,100771.13
2018-11-22T19:52:37.679Z,100770.69
2018-11-22T19:55:07.651Z,100772.94
2018-11-22T19:57:35.848Z,100770.74
2018-11-22T20:00:04.212Z,100770.30
2018-11-22T20:02:32.384Z,100781.03
2018-11-22T20:05:00.545Z,100778.36
2018-11-22T20:07:28.711Z,100788.18
2018-11-22T20:09:56.868Z,100778.36
2018-11-22T20:12:25.144Z,100782.39
2018-11-22T20:14:53.303Z,100777.48
2018-11-22T20:17:21.468Z,100774.41
2018-11-22T20:19:49.627Z,100780.69
2018-11-22T20:22:17.959Z,100782.97
2018-11-22T20:24:46.111Z,100792.80
2018-11-22T20:27:14.282Z,100803.06
2018-11-22T20:29:42.459Z,100797.26
2018-11-22T20:32:10.619Z,100799.05
2018-11-22T20:34:39.128Z,100797.71
2018-11-22T20:37:07.284Z,100799.05
2018-11-22T20:39:35.452Z,100795.48
2018-11-22T20:42:03.615Z,100793.70
2018-11-22T20:44:31.771Z,100800.84
2018-11-22T20:46:59.919Z,100802.63
2018-11-22T20:49:28.076Z,100801.30
2018-11-22T20:51:56.218Z,100795.04
2018-11-22T20:54:24.378Z,100803.07
2018-11-22T20:56:52.554Z,100797.27
2018-11-22T20:59:20.735Z,100798.17
2018-11-22T21:01:51.786Z,100795.09
2018-11-22T21:04:17.063Z,100801.34
2018-11-22T21:06:45.277Z,100792.86
2018-11-22T21:09:13.440Z,100784.84
2018-11-22T21:11:43.469Z,100784.39
2018-11-22T21:14:09.786Z,100784.84
2018-11-22T21:16:41.391Z,100785.74
2018-11-22T21:19:09.550Z,100789.31
2018-11-22T21:21:37.692Z,100789.29
2018-11-22T21:24:06.230Z,100789.75
2018-11-22T21:26:34.375Z,100779.09
2018-11-22T21:29:02.527Z,100784.92
2018-11-22T21:31:30.672Z,100782.68
2018-11-22T21:33:58.828Z,100787.20
2018-11-22T21:36:26.971Z,100786.75
2018-11-22T21:38:55.248Z,100786.37
2018-11-22T21:41:23.413Z,100782.37
2018-11-22T21:43:51.562Z,100782.36
2018-11-22T21:46:25.036Z,100785.03
2018-11-22T21:48:53.267Z,100783.71
2018-11-22T21:51:21.403Z,100786.83
2018-11-22T21:53:49.567Z,100791.28
2018-11-22T21:56:17.771Z,100796.63
2018-11-22T21:58:45.920Z,100796.14
2018-11-22T22:01:14.135Z,100798.38
2018-11-22T22:03:42.423Z,100800.61
2018-11-22T22:06:10.575Z,100796.13
2018-11-22T22:08:38.763Z,100797.48
2018-11-22T22:11:06.916Z,100801.05
2018-11-22T22:13:35.060Z,100798.38
2018-11-22T22:16:03.220Z,100805.06
2018-11-22T22:18:31.370Z,100799.72
2018-11-22T22:20:59.540Z,100799.72
2018-11-22T22:23:27.686Z,100797.52
2018-11-22T22:25:55.849Z,100793.51
2018-11-22T22:28:23.991Z,100792.17
2018-11-22T22:30:52.147Z,100794.86
2018-11-22T22:33:20.358Z,100790.45
2018-11-22T22:35:48.515Z,100792.64
2018-11-22T22:38:16.657Z,100794.02
2018-11-22T22:40:44.807Z,100788.22
2018-11-22T22:43:12.975Z,100795.36
2018-11-22T22:45:41.206Z,100793.57
2018-11-22T22:48:09.359Z,100796.26
2018-11-22T22:50:37.524Z,100802.51
2018-11-22T22:53:05.731Z,100802.51
2018-11-22T22:55:33.899Z,100798.05
2018-11-22T22:58:02.055Z,100798.94
2018-11-22T23:01:03.151Z,100797.59
2018-11-22T23:03:31.415Z,100790.56
2018-11-22T23:05:59.587Z,100792.31
2018-11-22T23:08:27.747Z,100792.75
2018-11-22T23:10:55.914Z,100793.64
2018-11-22T23:13:24.072Z,100790.13
2018-11-22T23:15:52.251Z,100795.03
2018-11-22T23:18:20.431Z,100792.80
2018-11-22T23:20:48.599Z,100782.55
2018-11-22T23:23:16.751Z,100792.36
2018-11-22T23:25:44.975Z,100789.68
2018-11-22T23:28:13.134Z,100789.68
2018-11-22T23:30:41.283Z,100791.02
2018-11-22T23:33:09.804Z,100788.34
2018-11-22T23:35:37.963Z,100782.55
2018-11-22T23:38:06.136Z,100784.33
2018-11-22T23:40:34.931Z,100783.00
2018-11-22T23:43:03.099Z,100780.77
2018-11-22T23:45:32.156Z,100775.90
2018-11-22T23:48:00.303Z,100777.25
2018-11-22T23:50:29.846Z,100778.14
2018-11-22T23:52:58.923Z,100786.17
2018-11-22T23:55:27.063Z,100781.77
2018-11-22T23:57:55.224Z,100783.55
